createdAt,value
2022-12-22T00:01:55.477Z,21.45
2022-12-22T00:04:41.627Z,16.40
2022-12-22T00:07:27.701Z,17.20
2022-12-22T00:10:13.582Z,18.77
2022-12-22T00:12:59.877Z,24.73
2022-12-22T00:15:49.863Z,20.83
2022-12-22T00:18:36.250Z,23.20
2022-12-22T00:21:22.555Z,17.30
2022-12-22T00:24:08.567Z,18.67
2022-12-22T00:26:54.860Z,18.08
2022-12-22T00:29:40.814Z,19.13
2022-12-22T00:32:32.267Z,16.80
2022-12-22T00:35:19.058Z,18.88
2022-12-22T00:38:04.986Z,15.70
2022-12-22T00:40:50.983Z,23.50
2022-12-22T00:43:37.106Z,16.30
2022-12-22T00:46:23.261Z,17.08
2022-12-22T00:49:09.796Z,18.20
2022-12-22T00:51:56.142Z,17.92
2022-12-22T00:54:42.325Z,17.10
2022-12-22T00:57:36.120Z,17.75
2022-12-22T01:00:24.752Z,18.23
2022-12-22T01:03:10.939Z,21.08
2022-12-22T01:05:57.389Z,20.33
2022-12-22T01:08:43.372Z,15.50
2022-12-22T01:11:29.673Z,17.85
2022-12-22T01:14:15.713Z,17.02
2022-12-22T01:17:01.920Z,18.00
2022-12-22T01:19:48.270Z,18.60
2022-12-22T01:22:39.456Z,17.55
2022-12-22T01:25:36.443Z,17.67
2022-12-22T01:28:23.039Z,26.52
2022-12-22T01:31:09.006Z,16.10
2022-12-22T01:33:55.361Z,18.10
2022-12-22T01:36:41.380Z,20.60
2022-12-22T01:39:27.274Z,18.33
2022-12-22T01:42:13.519Z,21.00
2022-12-22T01:44:59.760Z,21.58
2022-12-22T01:47:52.922Z,26.63
2022-12-22T01:50:52.409Z,23.95
2022-12-22T01:53:41.528Z,24.75
2022-12-22T01:56:27.642Z,23.23
2022-12-22T01:59:17.042Z,18.58
2022-12-22T02:02:04.166Z,18.83
2022-12-22T02:04:58.248Z,17.48
2022-12-22T02:08:14.734Z,19.10
2022-12-22T02:11:26.015Z,19.58
2022-12-22T02:17:22.966Z,17.35
2022-12-22T02:20:34.053Z,24.02
2022-12-22T02:23:26.263Z,16.17
2022-12-22T02:26:32.702Z,19.42
2022-12-22T02:29:19.955Z,21.67
2022-12-22T02:32:05.895Z,15.20
2022-12-22T02:34:52.112Z,18.02
2022-12-22T02:37:47.001Z,18.00
2022-12-22T02:41:00.171Z,21.05
2022-12-22T02:43:59.911Z,26.13
2022-12-22T02:47:00.543Z,15.68
2022-12-22T02:49:55.721Z,22.92
2022-12-22T02:52:49.154Z,19.08
2022-12-22T02:55:36.274Z,15.63
2022-12-22T02:58:22.657Z,22.83
2022-12-22T03:01:09.241Z,17.77
2022-12-22T03:03:55.484Z,18.52
2022-12-22T03:06:41.329Z,21.25
2022-12-22T03:09:27.186Z,27.23
2022-12-22T03:12:13.200Z,18.75
2022-12-22T03:14:59.087Z,19.92
2022-12-22T03:17:45.223Z,18.05
2022-12-22T03:20:31.129Z,22.42
2022-12-22T03:23:23.378Z,17.17
2022-12-22T03:25:53.041Z,20.48
2022-12-22T03:28:22.874Z,18.25
2022-12-22T03:30:59.223Z,23.17
2022-12-22T03:33:28.127Z,24.55
2022-12-22T03:35:55.933Z,15.55
2022-12-22T03:38:23.511Z,24.65
2022-12-22T03:40:50.926Z,25.70
2022-12-22T03:43:37.537Z,24.10
2022-12-22T03:46:24.219Z,23.30
2022-12-22T03:49:10.095Z,25.25
2022-12-22T03:51:40.796Z,20.10
2022-12-22T03:54:09.178Z,19.40
2022-12-22T03:56:37.041Z,20.45
2022-12-22T03:59:04.989Z,26.30
2022-12-22T04:01:36.890Z,26.48
2022-12-22T04:04:04.602Z,22.52
2022-12-22T04:06:32.116Z,26.90
2022-12-22T04:08:59.677Z,20.90
2022-12-22T04:11:45.982Z,25.00
2022-12-22T04:14:13.405Z,24.90
2022-12-22T04:16:41.134Z,25.08
2022-12-22T04:19:09.924Z,29.38
2022-12-22T04:21:37.964Z,31.05
2022-12-22T04:24:06.227Z,33.08
2022-12-22T04:26:34.387Z,29.95
2022-12-22T04:29:01.804Z,36.80
2022-12-22T04:31:29.274Z,27.48
2022-12-22T04:33:56.867Z,30.55
2022-12-22T04:36:24.291Z,33.65
2022-12-22T04:38:51.753Z,24.38
2022-12-22T04:41:19.212Z,33.88
2022-12-22T04:43:46.672Z,28.58
2022-12-22T04:46:14.253Z,31.10
2022-12-22T04:48:41.879Z,29.58
2022-12-22T04:51:09.451Z,33.33
2022-12-22T04:53:36.987Z,27.73
2022-12-22T04:56:07.623Z,27.08
2022-12-22T04:58:35.298Z,26.25
2022-12-22T05:01:15.233Z,27.30
2022-12-22T05:03:43.246Z,26.02
2022-12-22T05:06:11.453Z,27.00
2022-12-22T05:08:39.011Z,23.60
2022-12-22T05:11:07.333Z,22.65
2022-12-22T05:13:35.504Z,19.67
2022-12-22T05:16:08.112Z,19.52
2022-12-22T05:18:36.665Z,22.38
2022-12-22T05:21:11.145Z,21.80
2022-12-22T05:23:39.888Z,18.88
2022-12-22T05:26:07.607Z,17.63
2022-12-22T05:28:35.473Z,20.30
2022-12-22T05:31:05.021Z,19.75
2022-12-22T05:33:32.688Z,21.80
2022-12-22T05:36:00.690Z,17.02
2022-12-22T05:38:28.412Z,25.02
2022-12-22T05:41:03.192Z,24.00
2022-12-22T05:43:32.750Z,19.52
2022-12-22T05:46:05.718Z,21.30
2022-12-22T05:48:37.910Z,18.80
2022-12-22T05:51:10.595Z,19.48
2022-12-22T05:53:38.960Z,18.10
2022-12-22T05:56:07.797Z,23.88
2022-12-22T05:58:37.939Z,18.63
2022-12-22T06:01:06.186Z,16.37
2022-12-22T06:03:33.893Z,23.48
2022-12-22T06:06:01.502Z,15.90
2022-12-22T06:08:29.271Z,16.42
2022-12-22T06:10:58.564Z,14.25
2022-12-22T06:13:26.959Z,12.13
2022-12-22T06:15:54.632Z,16.38
2022-12-22T06:18:22.194Z,19.95
2022-12-22T06:20:52.554Z,15.60
2022-12-22T06:23:22.284Z,25.38
2022-12-22T06:26:01.661Z,16.35
2022-12-22T06:28:29.736Z,20.42
2022-12-22T06:30:57.432Z,20.13
2022-12-22T06:33:25.160Z,26.05
2022-12-22T06:35:58.526Z,16.83
2022-12-22T06:38:27.939Z,17.27
2022-12-22T06:40:55.496Z,16.20
2022-12-22T06:43:23.028Z,13.35
2022-12-22T06:45:50.663Z,14.68
2022-12-22T06:48:18.461Z,11.77
2022-12-22T06:50:46.167Z,11.13
2022-12-22T06:53:13.657Z,11.82
2022-12-22T06:55:41.216Z,8.55
2022-12-22T06:58:08.628Z,12.90
2022-12-22T07:00:37.287Z,14.10
2022-12-22T07:03:04.853Z,8.90
2022-12-22T07:05:32.555Z,11.30
2022-12-22T07:08:07.779Z,9.45
2022-12-22T07:10:55.206Z,10.40
2022-12-22T07:13:24.200Z,11.13
2022-12-22T07:16:00.068Z,11.63
2022-12-22T07:18:34.453Z,9.20
2022-12-22T07:21:04.896Z,10.77
2022-12-22T07:23:33.599Z,13.52
2022-12-22T07:26:01.824Z,10.65
2022-12-22T07:28:29.708Z,12.35
2022-12-22T07:30:57.445Z,13.63
2022-12-22T07:33:25.025Z,14.82
2022-12-22T07:36:21.774Z,15.60
2022-12-22T07:38:51.165Z,13.90
2022-12-22T07:41:39.270Z,17.45
2022-12-22T07:44:07.987Z,12.35
2022-12-22T07:46:38.171Z,15.63
2022-12-22T07:49:26.000Z,11.87
2022-12-22T07:51:56.749Z,14.18
2022-12-22T07:54:25.326Z,17.55
2022-12-22T07:56:53.296Z,17.15
2022-12-22T07:59:21.171Z,22.08
2022-12-22T08:01:48.876Z,25.95
2022-12-22T08:04:17.252Z,25.92
2022-12-22T08:06:45.164Z,19.25
2022-12-22T08:09:17.864Z,15.38
2022-12-22T08:11:45.432Z,22.25
2022-12-22T08:14:12.969Z,31.35
2022-12-22T08:16:40.443Z,26.30
2022-12-22T08:19:07.988Z,36.95
2022-12-22T08:21:35.480Z,39.72
2022-12-22T08:24:03.007Z,34.42
2022-12-22T08:26:44.185Z,32.97
2022-12-22T08:29:21.524Z,27.95
2022-12-22T08:31:49.133Z,31.58
2022-12-22T08:34:17.107Z,24.17
2022-12-22T08:36:49.310Z,26.38
2022-12-22T08:39:18.671Z,25.90
2022-12-22T08:41:52.339Z,21.85
2022-12-22T08:44:28.519Z,20.42
2022-12-22T08:46:58.425Z,20.85
2022-12-22T08:49:26.704Z,20.20
2022-12-22T08:51:54.886Z,19.98
2022-12-22T08:54:22.860Z,19.38
2022-12-22T08:56:51.253Z,17.75
2022-12-22T08:59:22.011Z,20.35
2022-12-22T09:01:51.209Z,20.98
2022-12-22T09:04:21.190Z,19.92
2022-12-22T09:06:48.830Z,30.48
2022-12-22T09:09:16.769Z,21.73
2022-12-22T09:11:44.405Z,17.67
2022-12-22T09:14:13.013Z,20.88
2022-12-22T09:16:41.195Z,16.73
2022-12-22T09:19:08.928Z,12.73
2022-12-22T09:21:36.830Z,15.95
2022-12-22T09:24:04.709Z,16.80
2022-12-22T09:26:32.496Z,15.38
2022-12-22T09:28:59.946Z,13.20
2022-12-22T09:31:28.294Z,11.57
2022-12-22T09:33:55.892Z,13.13
2022-12-22T09:36:27.451Z,13.48
2022-12-22T09:38:54.987Z,18.85
2022-12-22T09:41:36.112Z,13.35
2022-12-22T09:46:35.396Z,9.93
2022-12-22T09:49:05.223Z,16.10
2022-12-22T09:51:39.296Z,14.98
2022-12-22T09:54:09.803Z,13.90
2022-12-22T09:56:37.281Z,12.52
2022-12-22T09:59:16.332Z,14.38
2022-12-22T10:02:10.896Z,16.00
2022-12-22T10:05:12.771Z,13.10
2022-12-22T10:07:42.408Z,10.10
2022-12-22T10:10:13.230Z,10.43
2022-12-22T10:12:40.696Z,10.10
2022-12-22T10:15:16.851Z,8.13
2022-12-22T10:17:54.491Z,10.25
2022-12-22T10:20:26.501Z,10.65
2022-12-22T10:23:02.716Z,8.20
2022-12-22T10:26:25.985Z,10.95
2022-12-22T10:28:34.859Z,11.40
2022-12-22T10:31:11.606Z,12.98
2022-12-22T10:33:46.151Z,5.47
2022-12-22T10:36:30.618Z,16.98
2022-12-22T10:39:05.690Z,14.23
2022-12-22T10:41:45.313Z,17.13
2022-12-22T10:44:16.580Z,19.38
2022-12-22T10:46:58.558Z,25.55
2022-12-22T10:52:15.512Z,18.52
2022-12-22T10:54:44.942Z,26.08
2022-12-22T10:57:15.482Z,30.45
2022-12-22T10:59:54.343Z,26.85
2022-12-22T11:02:22.757Z,29.27
2022-12-22T11:04:51.793Z,31.98
2022-12-22T11:07:19.823Z,34.28
2022-12-22T11:09:47.525Z,32.92
2022-12-22T11:12:42.834Z,33.05
2022-12-22T11:15:33.705Z,27.10
2022-12-22T11:18:22.922Z,37.83
2022-12-22T11:21:30.386Z,40.95
2022-12-22T11:24:12.918Z,43.97
2022-12-22T11:26:49.831Z,37.97
2022-12-22T11:29:45.472Z,37.60
2022-12-22T11:32:28.075Z,31.92
2022-12-22T11:35:15.822Z,35.30
2022-12-22T11:37:46.502Z,36.10
2022-12-22T11:40:45.863Z,37.67
2022-12-22T11:43:39.739Z,32.42
2022-12-22T11:46:41.704Z,38.33
2022-12-22T11:49:21.530Z,29.23
2022-12-22T11:52:00.415Z,34.47
2022-12-22T11:55:08.585Z,34.47
2022-12-22T11:57:58.787Z,19.52
2022-12-22T12:01:03.760Z,35.97
2022-12-22T12:03:37.807Z,25.17
2022-12-22T12:06:24.567Z,22.95
2022-12-22T12:09:03.307Z,23.00
2022-12-22T12:11:40.939Z,22.60
2022-12-22T12:14:27.353Z,18.83
2022-12-22T12:17:11.326Z,19.30
2022-12-22T12:19:44.397Z,22.02
2022-12-22T12:22:47.767Z,16.83
2022-12-22T12:25:32.459Z,25.17
2022-12-22T12:28:33.716Z,19.30
2022-12-22T12:33:51.316Z,23.23
2022-12-22T12:36:29.622Z,24.63
2022-12-22T12:39:18.951Z,14.10
2022-12-22T12:42:14.092Z,31.48
2022-12-22T12:44:42.573Z,27.70
2022-12-22T12:47:32.365Z,22.80
2022-12-22T12:50:35.034Z,26.80
2022-12-22T12:53:10.781Z,20.63
2022-12-22T12:55:38.748Z,24.52
2022-12-22T12:58:11.521Z,22.88
2022-12-22T13:00:46.700Z,29.63
2022-12-22T13:06:49.874Z,30.65
2022-12-22T13:12:49.284Z,30.20
2022-12-22T13:15:30.831Z,23.67
2022-12-22T13:17:59.337Z,27.85
2022-12-22T13:20:33.726Z,36.58
2022-12-22T13:23:04.195Z,32.88
2022-12-22T13:25:55.809Z,30.80
2022-12-22T13:28:23.936Z,24.63
2022-12-22T13:31:18.532Z,34.53
2022-12-22T13:33:48.140Z,34.85
2022-12-22T13:36:27.080Z,41.97
2022-12-22T13:39:03.105Z,30.95
2022-12-22T13:41:32.532Z,26.75
2022-12-22T13:44:11.098Z,38.25
2022-12-22T13:46:39.130Z,30.10
2022-12-22T13:49:13.688Z,24.67
2022-12-22T13:51:48.379Z,36.05
2022-12-22T13:54:26.742Z,30.05
2022-12-22T13:56:57.060Z,31.17
2022-12-22T13:59:40.543Z,24.30
2022-12-22T14:02:08.266Z,27.48
2022-12-22T14:04:38.025Z,35.63
2022-12-22T14:07:19.265Z,34.05
2022-12-22T14:09:54.857Z,28.40
2022-12-22T14:12:28.863Z,29.30
2022-12-22T14:14:58.769Z,30.10
2022-12-22T14:17:29.957Z,28.88
2022-12-22T14:20:00.615Z,35.05
2022-12-22T14:22:43.293Z,26.92
2022-12-22T14:25:18.867Z,26.88
2022-12-22T14:27:52.942Z,25.85
2022-12-22T14:30:24.262Z,21.45
2022-12-22T14:32:57.686Z,32.50
2022-12-22T14:35:28.918Z,26.33
2022-12-22T14:38:20.724Z,32.10
2022-12-22T14:40:56.247Z,23.25
2022-12-22T14:43:28.238Z,29.95
2022-12-22T14:46:06.537Z,31.45
2022-12-22T14:48:44.990Z,27.10
2022-12-22T14:51:18.198Z,32.20
2022-12-22T14:53:55.706Z,17.42
2022-12-22T14:56:25.166Z,22.00
2022-12-22T14:59:21.773Z,16.83
2022-12-22T15:02:19.187Z,30.85
2022-12-22T15:04:46.814Z,30.75
2022-12-22T15:07:54.117Z,25.60
2022-12-22T15:10:17.204Z,26.30
2022-12-22T15:12:46.527Z,24.08
2022-12-22T15:15:20.340Z,26.00
2022-12-22T15:17:50.560Z,19.52
2022-12-22T15:20:24.059Z,24.00
2022-12-22T15:22:52.212Z,22.65
2022-12-22T15:25:24.587Z,19.08
2022-12-22T15:27:52.555Z,24.30
2022-12-22T15:30:28.470Z,16.08
2022-12-22T15:32:57.196Z,21.40
2022-12-22T15:35:32.019Z,19.70
2022-12-22T15:38:00.943Z,18.70
2022-12-22T15:40:29.316Z,25.25
2022-12-22T15:42:56.939Z,22.38
2022-12-22T15:45:24.653Z,25.05
2022-12-22T15:47:53.764Z,22.17
2022-12-22T15:50:26.095Z,26.88
2022-12-22T15:52:56.410Z,35.58
2022-12-22T15:55:24.722Z,33.22
2022-12-22T15:57:56.472Z,34.92
2022-12-22T16:00:24.902Z,42.80
2022-12-22T16:02:52.551Z,32.58
2022-12-22T16:05:20.155Z,49.70
2022-12-22T16:07:47.857Z,43.92
2022-12-22T16:10:28.064Z,49.78
2022-12-22T16:13:03.038Z,45.60
2022-12-22T16:15:33.511Z,49.10
2022-12-22T16:18:02.548Z,54.88
2022-12-22T16:20:39.542Z,49.60
2022-12-22T16:23:11.406Z,49.83
2022-12-22T16:25:39.860Z,57.55
2022-12-22T16:28:10.834Z,45.15
2022-12-22T16:33:06.846Z,64.20
2022-12-22T16:35:34.430Z,55.85
2022-12-22T16:38:01.871Z,49.35
2022-12-22T16:40:32.156Z,54.47
2022-12-22T16:45:58.346Z,55.95
2022-12-22T16:48:35.388Z,53.85
2022-12-22T16:51:03.798Z,59.63
2022-12-22T16:53:31.475Z,59.10
2022-12-22T16:56:00.822Z,60.75
2022-12-22T16:58:28.928Z,63.05
2022-12-22T17:00:56.651Z,56.15
2022-12-22T17:03:28.810Z,67.78
2022-12-22T17:05:59.215Z,64.65
2022-12-22T17:08:32.414Z,59.40
2022-12-22T17:11:10.049Z,49.60
2022-12-22T17:13:39.028Z,65.53
2022-12-22T17:16:06.838Z,64.30
2022-12-22T17:18:35.623Z,52.25
2022-12-22T17:21:04.395Z,70.82
2022-12-22T17:23:39.377Z,49.50
2022-12-22T17:26:08.950Z,59.05
2022-12-22T17:28:37.583Z,47.22
2022-12-22T17:31:05.421Z,47.25
2022-12-22T17:33:33.098Z,50.00
2022-12-22T17:36:02.435Z,55.42
2022-12-22T17:38:30.124Z,57.13
2022-12-22T17:40:57.846Z,49.15
2022-12-22T17:43:25.401Z,58.90
2022-12-22T17:45:54.049Z,50.42
2022-12-22T17:48:21.675Z,48.05
2022-12-22T17:50:50.233Z,45.97
2022-12-22T17:53:20.236Z,48.13
2022-12-22T17:58:36.316Z,54.85
2022-12-22T18:01:03.856Z,54.97
2022-12-22T18:03:31.599Z,52.15
2022-12-22T18:05:59.606Z,42.38
2022-12-22T18:08:27.194Z,51.65
2022-12-22T18:10:54.934Z,51.83
2022-12-22T18:13:26.304Z,49.97
2022-12-22T18:15:55.930Z,49.05
2022-12-22T18:18:24.202Z,48.08
2022-12-22T18:21:06.497Z,62.60
2022-12-22T18:23:37.417Z,42.03
2022-12-22T18:26:08.485Z,54.92
2022-12-22T18:28:36.905Z,46.85
2022-12-22T18:31:04.554Z,51.72
2022-12-22T18:33:32.417Z,47.55
2022-12-22T18:36:01.048Z,57.53
2022-12-22T18:38:31.511Z,39.95
2022-12-22T18:40:59.410Z,49.60
2022-12-22T18:43:27.006Z,51.10
2022-12-22T18:45:54.563Z,55.70
2022-12-22T18:48:22.047Z,52.97
2022-12-22T18:50:49.616Z,43.67
2022-12-22T18:53:27.012Z,55.85
2022-12-22T18:55:55.339Z,50.75
2022-12-22T18:58:23.633Z,42.83
2022-12-22T19:00:53.522Z,52.20
2022-12-22T19:03:29.068Z,39.50
2022-12-22T19:05:57.481Z,47.08
2022-12-22T19:08:26.938Z,41.30
2022-12-22T19:10:57.616Z,37.15
2022-12-22T19:13:27.801Z,43.35
2022-12-22T19:15:56.906Z,37.88
2022-12-22T19:18:27.239Z,29.10
2022-12-22T19:20:55.935Z,32.25
2022-12-22T19:23:24.930Z,30.98
2022-12-22T19:26:08.492Z,38.53
2022-12-22T19:28:39.929Z,36.78
2022-12-22T19:31:08.686Z,26.52
2022-12-22T19:33:39.001Z,30.58
2022-12-22T19:36:07.592Z,29.73
2022-12-22T19:38:36.212Z,30.45
2022-12-22T19:41:05.150Z,29.98
2022-12-22T19:43:35.566Z,29.17
2022-12-22T19:46:04.004Z,26.52
2022-12-22T19:48:31.519Z,36.65
2022-12-22T19:50:59.150Z,26.30
2022-12-22T19:53:28.005Z,30.83
2022-12-22T19:55:56.828Z,24.65
2022-12-22T19:58:36.215Z,27.35
2022-12-22T20:01:07.856Z,27.13
2022-12-22T20:03:36.002Z,24.75
2022-12-22T20:06:04.836Z,39.75
2022-12-22T20:08:32.665Z,27.63
2022-12-22T20:11:00.634Z,28.88
2022-12-22T20:13:32.479Z,25.05
2022-12-22T20:16:00.152Z,22.92
2022-12-22T20:18:30.290Z,26.55
2022-12-22T20:21:01.727Z,28.03
2022-12-22T20:23:33.128Z,30.50
2022-12-22T20:26:04.213Z,30.08
2022-12-22T20:28:34.951Z,22.10
2022-12-22T20:31:03.265Z,23.77
2022-12-22T20:33:32.186Z,23.52
2022-12-22T20:36:01.607Z,26.40
2022-12-22T20:38:41.437Z,23.98
2022-12-22T20:41:10.482Z,18.63
2022-12-22T20:43:39.207Z,16.00
2022-12-22T20:46:28.068Z,23.23
2022-12-22T20:48:59.121Z,25.73
2022-12-22T20:53:57.232Z,21.63
2022-12-22T20:56:31.408Z,16.95
2022-12-22T20:59:01.403Z,18.48
2022-12-22T21:01:29.219Z,16.57
2022-12-22T21:03:57.202Z,16.58
2022-12-22T21:06:31.154Z,16.00
2022-12-22T21:09:00.138Z,13.70
2022-12-22T21:11:29.395Z,17.77
2022-12-22T21:13:58.265Z,14.85
2022-12-22T21:16:28.725Z,23.10
2022-12-22T21:18:56.656Z,15.85
2022-12-22T21:21:24.353Z,22.23
2022-12-22T21:23:52.072Z,17.35
2022-12-22T21:26:30.366Z,18.50
2022-12-22T21:28:59.848Z,17.80
2022-12-22T21:31:28.298Z,15.70
2022-12-22T21:33:56.161Z,16.40
2022-12-22T21:36:26.941Z,16.27
2022-12-22T21:39:02.874Z,15.10
2022-12-22T21:41:49.165Z,16.30
2022-12-22T21:44:16.909Z,15.73
2022-12-22T21:46:46.523Z,17.65
2022-12-22T21:49:19.921Z,8.27
2022-12-22T21:51:48.666Z,8.07
2022-12-22T21:54:17.379Z,7.28
2022-12-22T21:56:45.485Z,13.50
2022-12-22T21:59:13.651Z,8.05
2022-12-22T22:01:43.364Z,7.32
2022-12-22T22:04:12.190Z,7.20
2022-12-22T22:06:40.312Z,6.82
2022-12-22T22:09:08.020Z,3.90
2022-12-22T22:11:58.516Z,5.85
2022-12-22T22:14:27.654Z,2.28
2022-12-22T22:16:55.177Z,3.92
2022-12-22T22:19:22.786Z,2.95
2022-12-22T22:21:50.286Z,1.88
2022-12-22T22:24:17.986Z,3.65
2022-12-22T22:26:46.271Z,4.40
2022-12-22T22:29:13.944Z,3.40
2022-12-22T22:31:41.623Z,5.43
2022-12-22T22:34:09.594Z,5.63
2022-12-22T22:36:37.213Z,5.22
2022-12-22T22:39:04.826Z,5.13
2022-12-22T22:41:39.234Z,5.32
2022-12-22T22:44:11.973Z,4.22
2022-12-22T22:49:09.320Z,4.22
2022-12-22T22:51:37.012Z,3.35
2022-12-22T22:54:04.770Z,5.07
2022-12-22T22:56:32.459Z,3.60
2022-12-22T22:59:00.302Z,4.22
2022-12-22T23:01:29.345Z,3.05
2022-12-22T23:03:57.187Z,2.08
2022-12-22T23:06:25.232Z,2.67
2022-12-22T23:08:54.244Z,2.67
2022-12-22T23:11:21.955Z,2.50
2022-12-22T23:13:49.719Z,4.47
2022-12-22T23:16:21.412Z,3.83
2022-12-22T23:18:51.255Z,2.53
2022-12-22T23:21:19.734Z,1.55
2022-12-22T23:23:47.672Z,2.95
2022-12-22T23:26:15.122Z,2.72
2022-12-22T23:28:42.504Z,4.32
2022-12-22T23:31:12.231Z,2.90
2022-12-22T23:36:08.904Z,5.00
2022-12-22T23:38:36.675Z,3.15
2022-12-22T23:41:06.381Z,3.95
2022-12-22T23:43:34.578Z,6.05
2022-12-22T23:46:09.487Z,4.60
2022-12-22T23:48:37.641Z,1.75
2022-12-22T23:51:06.171Z,2.00
2022-12-22T23:53:35.057Z,4.40
2022-12-22T23:56:03.360Z,3.38
2022-12-22T23:58:30.921Z,4.05
